createdAt,value
2018-04-04T00:00:13.058Z,0.00
2018-04-04T00:01:13.050Z,0.00
2018-04-04T00:02:13.049Z,0.00
2018-04-04T00:03:13.070Z,0.00
2018-04-04T00:04:13.048Z,0.00
2018-04-04T00:05:13.045Z,0.00
2018-04-04T00:06:13.044Z,0.00
2018-04-04T00:07:13.045Z,0.00
2018-04-04T00:08:13.045Z,0.00
2018-04-04T00:09:13.062Z,0.00
2018-04-04T00:10:13.039Z,0.00
2018-04-04T00:11:13.042Z,0.00
2018-04-04T00:12:13.038Z,0.00
2018-04-04T00:13:13.036Z,0.00
2018-04-04T00:14:13.034Z,0.00
2018-04-04T00:15:13.035Z,0.00
2018-04-04T00:16:13.035Z,0.00
2018-04-04T00:17:13.030Z,0.00
2018-04-04T00:18:13.029Z,0.00
2018-04-04T00:19:13.031Z,0.00
2018-04-04T00:20:13.029Z,0.00
2018-04-04T00:21:13.024Z,0.00
2018-04-04T00:22:13.026Z,0.00
2018-04-04T00:23:13.029Z,0.00
2018-04-04T00:24:13.020Z,0.00
2018-04-04T00:25:13.018Z,0.00
2018-04-04T00:26:13.016Z,0.00
2018-04-04T00:27:13.015Z,0.00
2018-04-04T00:28:13.014Z,0.00
2018-04-04T00:29:13.011Z,0.00
2018-04-04T00:30:13.014Z,0.00
2018-04-04T00:31:13.008Z,0.00
2018-04-04T00:32:13.010Z,0.00
2018-04-04T00:33:13.003Z,0.00
2018-04-04T00:34:13.003Z,0.00
2018-04-04T00:35:13.000Z,0.00
2018-04-04T00:36:12.999Z,0.00
2018-04-04T00:37:12.998Z,0.00
2018-04-04T00:38:12.995Z,0.00
2018-04-04T00:39:12.993Z,0.00
2018-04-04T00:40:12.991Z,0.00
2018-04-04T00:41:12.990Z,0.00
2018-04-04T00:42:12.991Z,0.00
2018-04-04T00:43:12.987Z,0.00
2018-04-04T00:44:12.985Z,0.00
2018-04-04T00:45:12.980Z,0.00
2018-04-04T00:46:12.978Z,0.00
2018-04-04T00:47:12.979Z,0.00
2018-04-04T00:48:12.976Z,0.00
2018-04-04T00:49:12.980Z,0.00
2018-04-04T00:50:12.972Z,0.00
2018-04-04T00:51:12.988Z,0.00
2018-04-04T00:52:12.967Z,0.00
2018-04-04T00:53:12.964Z,0.00
2018-04-04T00:54:12.963Z,0.00
2018-04-04T00:55:12.960Z,0.00
2018-04-04T00:56:12.973Z,0.00
2018-04-04T00:57:12.957Z,0.00
2018-04-04T00:58:12.963Z,0.00
2018-04-04T00:59:12.954Z,0.00
2018-04-04T01:00:12.955Z,0.00
2018-04-04T01:01:12.959Z,0.00
2018-04-04T01:02:12.946Z,0.00
2018-04-04T01:03:12.951Z,0.00
2018-04-04T01:04:12.944Z,0.00
2018-04-04T01:05:12.945Z,0.00
2018-04-04T01:06:12.940Z,0.00
2018-04-04T01:07:12.937Z,0.00
2018-04-04T01:08:12.935Z,0.00
2018-04-04T01:09:12.932Z,0.00
2018-04-04T01:10:12.933Z,0.00
2018-04-04T01:11:12.929Z,0.00
2018-04-04T01:12:12.929Z,0.00
2018-04-04T01:13:12.923Z,0.00
2018-04-04T01:14:12.920Z,0.00
2018-04-04T01:15:12.922Z,0.00
2018-04-04T01:16:12.919Z,0.00
2018-04-04T01:17:12.917Z,0.00
2018-04-04T01:18:12.916Z,0.00
2018-04-04T01:19:12.912Z,0.00
2018-04-04T01:20:12.913Z,0.00
2018-04-04T01:21:12.906Z,0.00
2018-04-04T01:22:12.907Z,0.00
2018-04-04T01:23:12.901Z,0.00
2018-04-04T01:24:12.898Z,0.00
2018-04-04T01:25:12.896Z,0.00
2018-04-04T01:26:12.894Z,0.00
2018-04-04T01:27:12.894Z,0.00
2018-04-04T01:28:12.891Z,0.00
2018-04-04T01:29:12.888Z,0.00
2018-04-04T01:30:12.887Z,0.00
2018-04-04T01:31:12.884Z,0.00
2018-04-04T01:32:12.883Z,0.00
2018-04-04T01:33:12.879Z,0.00
2018-04-04T01:34:12.876Z,0.00
2018-04-04T01:35:12.879Z,0.00
2018-04-04T01:36:12.875Z,0.00
2018-04-04T01:37:12.871Z,0.00
2018-04-04T01:38:12.868Z,0.00
2018-04-04T01:39:12.864Z,0.00
2018-04-04T01:40:12.863Z,0.00
2018-04-04T01:41:12.860Z,0.00
2018-04-04T01:42:12.858Z,0.00
2018-04-04T01:43:12.856Z,0.00
2018-04-04T01:44:12.854Z,0.00
2018-04-04T01:45:12.853Z,0.00
2018-04-04T01:46:12.850Z,0.00
2018-04-04T01:47:12.848Z,0.00
2018-04-04T01:48:12.854Z,0.00
2018-04-04T01:49:12.842Z,0.00
2018-04-04T01:50:12.844Z,0.00
2018-04-04T01:51:12.838Z,0.00
2018-04-04T01:52:12.836Z,0.00
2018-04-04T01:53:12.838Z,0.00
2018-04-04T01:54:12.832Z,0.00
2018-04-04T01:55:12.838Z,0.00
2018-04-04T01:56:12.826Z,0.00
2018-04-04T01:57:12.822Z,0.00
2018-04-04T01:58:12.821Z,0.00
2018-04-04T01:59:12.821Z,0.00
2018-04-04T02:00:12.824Z,0.00
2018-04-04T02:01:12.816Z,0.00
2018-04-04T02:02:12.811Z,0.00
2018-04-04T02:03:12.809Z,0.00
2018-04-04T02:04:12.808Z,0.00
2018-04-04T02:05:12.803Z,0.00
2018-04-04T02:06:12.800Z,0.00
2018-04-04T02:07:12.799Z,0.00
2018-04-04T02:08:12.798Z,0.00
2018-04-04T02:09:12.797Z,0.00
2018-04-04T02:10:12.791Z,0.00
2018-04-04T02:11:12.791Z,0.00
2018-04-04T02:12:12.817Z,0.00
2018-04-04T02:13:12.783Z,0.00
2018-04-04T02:14:12.782Z,0.00
2018-04-04T02:15:12.778Z,0.00
2018-04-04T02:16:12.778Z,0.00
2018-04-04T02:17:12.771Z,0.00
2018-04-04T02:18:12.773Z,0.00
2018-04-04T02:19:12.768Z,0.00
2018-04-04T02:20:12.765Z,0.00
2018-04-04T02:21:12.794Z,0.00
2018-04-04T02:22:12.770Z,0.00
2018-04-04T02:23:12.756Z,0.00
2018-04-04T02:24:12.754Z,0.00
2018-04-04T02:25:12.750Z,0.00
2018-04-04T02:26:12.752Z,0.00
2018-04-04T02:27:12.750Z,0.00
2018-04-04T02:28:12.756Z,0.00
2018-04-04T02:29:12.743Z,0.00
2018-04-04T02:30:12.740Z,0.00
2018-04-04T02:31:12.736Z,0.00
2018-04-04T02:32:12.734Z,0.00
2018-04-04T02:33:12.733Z,0.00
2018-04-04T02:34:12.729Z,0.00
2018-04-04T02:35:12.778Z,0.00
2018-04-04T02:36:12.725Z,0.00
2018-04-04T02:37:12.724Z,0.00
2018-04-04T02:38:12.729Z,0.00
2018-04-04T02:39:12.718Z,0.00
2018-04-04T02:40:12.714Z,0.00
2018-04-04T02:41:12.712Z,0.00
2018-04-04T02:42:12.711Z,0.00
2018-04-04T02:43:12.709Z,0.00
2018-04-04T02:44:12.705Z,0.00
2018-04-04T02:45:12.702Z,0.00
2018-04-04T02:46:12.699Z,0.00
2018-04-04T02:47:12.700Z,0.00
2018-04-04T02:48:12.697Z,0.00
2018-04-04T02:49:12.692Z,0.00
2018-04-04T02:50:12.689Z,0.00
2018-04-04T02:51:12.689Z,0.00
2018-04-04T02:52:12.686Z,0.00
2018-04-04T02:53:12.684Z,0.00
2018-04-04T02:54:12.679Z,0.00
2018-04-04T02:55:12.677Z,0.00
2018-04-04T02:56:12.676Z,0.00
2018-04-04T02:57:12.675Z,0.00
2018-04-04T02:58:12.668Z,0.00
2018-04-04T02:59:12.666Z,0.00
2018-04-04T03:00:12.664Z,0.00
2018-04-04T03:01:12.663Z,0.00
2018-04-04T03:02:12.665Z,0.00
2018-04-04T03:03:12.659Z,0.00
2018-04-04T03:04:12.676Z,0.00
2018-04-04T03:05:12.651Z,0.00
2018-04-04T03:06:12.650Z,0.00
2018-04-04T03:07:12.648Z,0.00
2018-04-04T03:08:12.645Z,0.00
2018-04-04T03:09:12.643Z,0.00
2018-04-04T03:10:12.645Z,0.00
2018-04-04T03:11:12.637Z,0.00
2018-04-04T03:12:12.635Z,0.00
2018-04-04T03:13:12.632Z,0.00
2018-04-04T03:14:12.630Z,0.00
2018-04-04T03:15:12.632Z,0.00
2018-04-04T03:16:12.630Z,0.00
2018-04-04T03:17:12.625Z,0.00
2018-04-04T03:18:34.276Z,0.00
2018-04-04T03:19:12.623Z,0.00
2018-04-04T03:20:12.622Z,0.00
2018-04-04T03:21:12.615Z,0.00
2018-04-04T03:22:12.616Z,0.00
2018-04-04T03:23:12.612Z,0.00
2018-04-04T03:24:12.609Z,0.00
2018-04-04T03:25:12.606Z,0.00
2018-04-04T03:26:12.607Z,0.00
2018-04-04T03:27:12.608Z,0.00
2018-04-04T03:28:12.602Z,0.00
2018-04-04T03:29:12.598Z,0.00
2018-04-04T03:30:12.596Z,0.00
2018-04-04T03:31:12.595Z,0.00
2018-04-04T03:32:12.592Z,0.00
2018-04-04T03:33:12.590Z,0.00
2018-04-04T03:34:12.588Z,0.00
2018-04-04T03:35:12.586Z,0.00
2018-04-04T03:36:12.584Z,0.00
2018-04-04T03:37:12.582Z,0.00
2018-04-04T03:38:12.581Z,0.00
2018-04-04T03:39:12.578Z,0.00
2018-04-04T03:40:12.575Z,0.00
2018-04-04T03:41:12.573Z,0.00
2018-04-04T03:42:12.569Z,0.00
2018-04-04T03:43:12.569Z,0.00
2018-04-04T03:44:12.570Z,0.00
2018-04-04T03:45:12.566Z,0.00
2018-04-04T03:46:12.562Z,0.00
2018-04-04T03:47:12.559Z,0.00
2018-04-04T03:48:12.559Z,0.00
2018-04-04T03:49:12.561Z,0.00
2018-04-04T03:50:12.554Z,0.00
2018-04-04T03:51:12.556Z,0.00
2018-04-04T03:52:12.549Z,0.00
2018-04-04T03:53:12.551Z,0.00
2018-04-04T03:54:12.545Z,0.00
2018-04-04T03:55:12.543Z,0.00
2018-04-04T03:56:12.555Z,0.00
2018-04-04T03:57:12.538Z,0.00
2018-04-04T03:58:12.535Z,0.00
2018-04-04T03:59:12.534Z,0.00
2018-04-04T04:00:12.536Z,0.00
2018-04-04T04:01:12.533Z,0.00
2018-04-04T04:02:12.527Z,0.00
2018-04-04T04:03:12.527Z,0.00
2018-04-04T04:04:12.524Z,0.00
2018-04-04T04:05:12.525Z,0.00
2018-04-04T04:06:12.519Z,0.00
2018-04-04T04:07:12.517Z,0.00
2018-04-04T04:08:12.530Z,0.00
2018-04-04T04:09:12.512Z,0.00
2018-04-04T04:10:12.523Z,0.00
2018-04-04T04:11:12.509Z,0.00
2018-04-04T04:12:12.507Z,0.00
2018-04-04T04:13:12.508Z,0.00
2018-04-04T04:14:12.507Z,0.00
2018-04-04T04:15:12.502Z,0.00
2018-04-04T04:16:12.502Z,0.00
2018-04-04T04:17:12.497Z,0.00
2018-04-04T04:18:12.496Z,0.00
2018-04-04T04:19:12.495Z,0.00
2018-04-04T04:20:12.493Z,0.00
2018-04-04T04:21:12.489Z,0.00
2018-04-04T04:22:12.489Z,0.00
2018-04-04T04:23:12.487Z,0.00
2018-04-04T04:24:12.487Z,0.00
2018-04-04T04:25:12.482Z,0.00
2018-04-04T04:26:12.481Z,0.00
2018-04-04T04:27:12.478Z,0.00
2018-04-04T04:28:12.479Z,0.00
2018-04-04T04:29:12.473Z,0.00
2018-04-04T04:30:12.475Z,0.00
2018-04-04T04:31:12.478Z,0.00
2018-04-04T04:32:12.472Z,0.00
2018-04-04T04:33:12.467Z,0.00
2018-04-04T04:34:12.470Z,0.00
2018-04-04T04:35:12.464Z,0.00
2018-04-04T04:36:12.464Z,0.00
2018-04-04T04:37:12.461Z,0.00
2018-04-04T04:38:12.460Z,0.00
2018-04-04T04:39:12.474Z,0.00
2018-04-04T04:40:12.457Z,0.00
2018-04-04T04:41:12.454Z,0.00
2018-04-04T04:42:12.456Z,0.00
2018-04-04T04:43:12.462Z,0.00
2018-04-04T04:44:12.447Z,0.00
2018-04-04T04:45:12.450Z,0.00
2018-04-04T04:46:12.444Z,0.00
2018-04-04T04:47:12.447Z,0.00
2018-04-04T04:48:12.438Z,0.00
2018-04-04T04:49:12.437Z,0.00
2018-04-04T04:50:12.434Z,0.00
2018-04-04T04:51:12.432Z,0.00
2018-04-04T04:52:12.431Z,0.00
2018-04-04T04:53:12.430Z,0.00
2018-04-04T04:54:12.428Z,0.00
2018-04-04T04:55:12.425Z,0.00
2018-04-04T04:56:12.424Z,5.63
2018-04-04T04:57:12.421Z,5.63
2018-04-04T04:58:12.418Z,5.63
2018-04-04T04:59:12.416Z,5.63
2018-04-04T05:00:12.415Z,5.63
2018-04-04T05:01:12.413Z,5.63
2018-04-04T05:02:12.411Z,5.63
2018-04-04T05:03:12.409Z,5.63
2018-04-04T05:04:12.407Z,5.63
2018-04-04T05:05:12.404Z,5.63
2018-04-04T05:06:12.404Z,5.63
2018-04-04T05:07:12.400Z,5.63
2018-04-04T05:08:12.405Z,5.63
2018-04-04T05:09:12.396Z,11.25
2018-04-04T05:10:12.398Z,11.25
2018-04-04T05:11:12.392Z,11.25
2018-04-04T05:12:12.394Z,11.25
2018-04-04T05:13:12.391Z,11.25
2018-04-04T05:14:12.388Z,11.25
2018-04-04T05:15:12.386Z,11.25
2018-04-04T05:16:12.387Z,16.88
2018-04-04T05:17:12.384Z,16.88
2018-04-04T05:18:12.382Z,16.88
2018-04-04T05:19:12.379Z,16.88
2018-04-04T05:20:12.376Z,16.88
2018-04-04T05:21:12.379Z,16.88
2018-04-04T05:22:12.373Z,16.88
2018-04-04T05:23:12.371Z,16.88
2018-04-04T05:24:12.369Z,16.88
2018-04-04T05:25:12.366Z,22.50
2018-04-04T05:26:12.383Z,22.50
2018-04-04T05:27:12.366Z,22.50
2018-04-04T05:28:12.362Z,22.50
2018-04-04T05:29:12.360Z,22.50
2018-04-04T05:30:12.363Z,22.50
2018-04-04T05:31:12.359Z,22.50
2018-04-04T05:32:12.357Z,22.50
2018-04-04T05:33:12.354Z,22.50
2018-04-04T05:34:12.357Z,22.50
2018-04-04T05:35:12.349Z,28.13
2018-04-04T05:36:12.350Z,28.13
2018-04-04T05:37:12.348Z,28.13
2018-04-04T05:38:12.346Z,28.13
2018-04-04T05:39:12.344Z,28.13
2018-04-04T05:40:12.342Z,28.13
2018-04-04T05:41:12.339Z,28.13
2018-04-04T05:42:12.340Z,28.13
2018-04-04T05:43:12.338Z,28.13
2018-04-04T05:44:12.335Z,33.75
2018-04-04T05:45:12.333Z,33.75
2018-04-04T05:46:12.336Z,33.75
2018-04-04T05:47:12.333Z,39.38
2018-04-04T05:48:12.329Z,39.38
2018-04-04T05:49:12.335Z,39.38
2018-04-04T05:50:12.328Z,39.38
2018-04-04T05:51:12.326Z,33.75
2018-04-04T05:52:12.323Z,33.75
2018-04-04T05:53:12.323Z,33.75
2018-04-04T05:54:12.322Z,33.75
2018-04-04T05:55:12.320Z,28.13
2018-04-04T05:56:12.318Z,33.75
2018-04-04T05:57:12.318Z,33.75
2018-04-04T05:58:12.315Z,33.75
2018-04-04T05:59:12.318Z,33.75
2018-04-04T06:00:12.312Z,28.13
2018-04-04T06:01:12.310Z,28.13
2018-04-04T06:02:12.310Z,33.75
2018-04-04T06:03:12.307Z,33.75
2018-04-04T06:04:12.309Z,33.75
2018-04-04T06:05:12.305Z,33.75
2018-04-04T06:06:12.302Z,39.38
2018-04-04T06:07:12.301Z,39.38
2018-04-04T06:08:12.329Z,39.38
2018-04-04T06:09:12.301Z,39.38
2018-04-04T06:10:12.297Z,39.38
2018-04-04T06:11:12.295Z,45.00
2018-04-04T06:12:12.293Z,45.00
2018-04-04T06:13:12.294Z,45.00
2018-04-04T06:14:12.290Z,45.00
2018-04-04T06:15:12.288Z,45.00
2018-04-04T06:16:12.291Z,45.00
2018-04-04T06:17:12.285Z,45.00
2018-04-04T06:18:12.285Z,45.00
2018-04-04T06:19:12.283Z,45.00
2018-04-04T06:20:12.281Z,45.00
2018-04-04T06:21:12.279Z,45.00
2018-04-04T06:22:12.277Z,45.00
2018-04-04T06:23:12.279Z,45.00
2018-04-04T06:24:12.275Z,45.00
2018-04-04T06:25:12.273Z,45.00
2018-04-04T06:26:12.275Z,45.00
2018-04-04T06:27:12.271Z,50.63
2018-04-04T06:28:12.335Z,50.63
2018-04-04T06:29:12.270Z,50.63
2018-04-04T06:30:12.267Z,50.63
2018-04-04T06:31:12.283Z,56.25
2018-04-04T06:32:12.262Z,61.88
2018-04-04T06:33:12.262Z,56.25
2018-04-04T06:34:12.259Z,56.25
2018-04-04T06:35:12.257Z,61.88
2018-04-04T06:36:12.257Z,61.88
2018-04-04T06:37:12.255Z,61.88
2018-04-04T06:38:12.260Z,67.50
2018-04-04T06:39:12.254Z,67.50
2018-04-04T06:40:12.259Z,73.13
2018-04-04T06:41:12.246Z,78.75
2018-04-04T06:42:12.257Z,78.75
2018-04-04T06:43:12.249Z,78.75
2018-04-04T06:44:12.248Z,78.75
2018-04-04T06:45:12.248Z,78.75
2018-04-04T06:46:12.250Z,84.38
2018-04-04T06:47:12.238Z,84.38
2018-04-04T06:48:12.249Z,90.00
2018-04-04T06:49:12.248Z,90.00
2018-04-04T06:50:12.239Z,90.00
2018-04-04T06:51:12.234Z,95.63
2018-04-04T06:52:12.238Z,95.63
2018-04-04T06:53:12.232Z,95.63
2018-04-04T06:54:12.230Z,95.63
2018-04-04T06:55:12.227Z,101.25
2018-04-04T06:56:12.231Z,101.25
2018-04-04T06:57:12.226Z,101.25
2018-04-04T06:58:12.226Z,106.88
2018-04-04T06:59:12.225Z,106.88
2018-04-04T07:00:12.224Z,106.88
2018-04-04T07:01:12.249Z,106.88
2018-04-04T07:02:12.223Z,106.88
2018-04-04T07:03:12.222Z,106.88
2018-04-04T07:04:12.223Z,106.88
2018-04-04T07:05:12.223Z,106.88
2018-04-04T07:06:12.220Z,106.88
2018-04-04T07:07:12.225Z,106.88
2018-04-04T07:08:12.222Z,106.88
2018-04-04T07:09:12.216Z,106.88
2018-04-04T07:10:12.224Z,106.88
2018-04-04T07:11:12.220Z,106.88
2018-04-04T07:12:12.221Z,106.88
2018-04-04T07:13:12.216Z,101.25
2018-04-04T07:14:12.227Z,106.88
2018-04-04T07:15:12.216Z,106.88
2018-04-04T07:16:12.221Z,106.88
2018-04-04T07:17:12.359Z,106.88
2018-04-04T07:18:12.345Z,106.88
2018-04-04T07:19:12.383Z,106.88
2018-04-04T07:20:12.781Z,106.88
2018-04-04T07:21:12.217Z,112.50
2018-04-04T07:22:12.295Z,112.50
2018-04-04T07:23:12.226Z,112.50
2018-04-04T07:24:12.423Z,112.50
2018-04-04T07:25:12.396Z,112.50
2018-04-04T07:26:12.573Z,112.50
2018-04-04T07:27:12.228Z,112.50
2018-04-04T07:28:12.683Z,112.50
2018-04-04T07:29:12.226Z,106.88
2018-04-04T07:30:12.230Z,106.88
2018-04-04T07:31:12.220Z,106.88
2018-04-04T07:32:12.221Z,106.88
2018-04-04T07:33:12.231Z,106.88
2018-04-04T07:34:12.221Z,106.88
2018-04-04T07:35:12.244Z,101.25
2018-04-04T07:36:12.249Z,101.25
2018-04-04T07:37:12.224Z,95.63
2018-04-04T07:38:12.230Z,95.63
2018-04-04T07:39:12.242Z,95.63
2018-04-04T07:40:12.235Z,95.63
2018-04-04T07:41:12.224Z,90.00
2018-04-04T07:42:12.228Z,90.00
2018-04-04T07:43:12.226Z,84.38
2018-04-04T07:44:12.229Z,84.38
2018-04-04T07:45:12.256Z,84.38
2018-04-04T07:46:12.229Z,84.38
2018-04-04T07:47:12.230Z,84.38
2018-04-04T07:48:12.236Z,84.38
2018-04-04T07:49:12.232Z,90.00
2018-04-04T07:50:12.233Z,90.00
2018-04-04T07:51:12.235Z,95.63
2018-04-04T07:52:12.237Z,95.63
2018-04-04T07:53:12.239Z,95.63
2018-04-04T07:54:12.244Z,95.63
2018-04-04T07:55:12.249Z,101.25
2018-04-04T07:56:12.242Z,101.25
2018-04-04T07:57:12.238Z,101.25
2018-04-04T07:58:12.239Z,101.25
2018-04-04T07:59:12.243Z,101.25
2018-04-04T08:00:12.242Z,101.25
2018-04-04T08:01:12.242Z,101.25
2018-04-04T08:02:12.248Z,101.25
2018-04-04T08:03:12.247Z,106.88
2018-04-04T08:04:12.249Z,106.88
2018-04-04T08:05:12.252Z,106.88
2018-04-04T08:06:12.248Z,106.88
2018-04-04T08:07:12.250Z,106.88
2018-04-04T08:08:12.250Z,112.50
2018-04-04T08:09:12.279Z,112.50
2018-04-04T08:10:12.267Z,118.13
2018-04-04T08:11:12.255Z,118.13
2018-04-04T08:12:12.256Z,123.75
2018-04-04T08:13:12.259Z,123.75
2018-04-04T08:14:12.307Z,129.38
2018-04-04T08:15:12.260Z,135.00
2018-04-04T08:16:12.265Z,135.00
2018-04-04T08:17:12.262Z,140.63
2018-04-04T08:18:12.264Z,140.63
2018-04-04T08:19:12.275Z,146.25
2018-04-04T08:20:12.286Z,146.25
2018-04-04T08:21:12.270Z,146.25
2018-04-04T08:22:12.272Z,151.88
2018-04-04T08:23:12.276Z,146.25
2018-04-04T08:24:12.277Z,151.88
2018-04-04T08:25:12.274Z,151.88
2018-04-04T08:26:12.283Z,151.88
2018-04-04T08:27:12.282Z,151.88
2018-04-04T08:28:12.287Z,151.88
2018-04-04T08:29:12.287Z,157.50
2018-04-04T08:30:12.287Z,157.50
2018-04-04T08:31:12.287Z,157.50
2018-04-04T08:32:12.292Z,157.50
2018-04-04T08:33:12.292Z,157.50
2018-04-04T08:34:12.324Z,157.50
2018-04-04T08:35:12.305Z,157.50
2018-04-04T08:36:12.299Z,157.50
2018-04-04T08:37:12.300Z,151.88
2018-04-04T08:38:12.303Z,151.88
2018-04-04T08:39:12.308Z,151.88
2018-04-04T08:40:12.307Z,146.25
2018-04-04T08:41:12.309Z,151.88
2018-04-04T08:42:12.313Z,151.88
2018-04-04T08:43:12.314Z,146.25
2018-04-04T08:44:12.316Z,146.25
2018-04-04T08:45:12.318Z,140.63
2018-04-04T08:46:12.351Z,140.63
2018-04-04T08:47:12.323Z,140.63
2018-04-04T08:48:12.328Z,140.63
2018-04-04T08:49:12.328Z,135.00
2018-04-04T08:50:12.334Z,135.00
2018-04-04T08:51:12.336Z,129.38
2018-04-04T08:52:12.359Z,129.38
2018-04-04T08:53:12.342Z,129.38
2018-04-04T08:54:12.342Z,135.00
2018-04-04T08:55:12.343Z,129.38
2018-04-04T08:56:12.346Z,123.75
2018-04-04T08:57:12.350Z,123.75
2018-04-04T08:58:12.355Z,123.75
2018-04-04T08:59:12.353Z,123.75
2018-04-04T09:00:12.357Z,123.75
2018-04-04T09:01:12.358Z,123.75
2018-04-04T09:02:12.361Z,118.13
2018-04-04T09:03:12.377Z,118.13
2018-04-04T09:04:12.366Z,123.75
2018-04-04T09:05:12.370Z,123.75
2018-04-04T09:06:12.376Z,118.13
2018-04-04T09:07:12.374Z,118.13
2018-04-04T09:08:12.377Z,118.13
2018-04-04T09:09:12.378Z,123.75
2018-04-04T09:10:12.381Z,118.13
2018-04-04T09:11:12.387Z,118.13
2018-04-04T09:12:12.387Z,118.13
2018-04-04T09:13:12.390Z,106.88
2018-04-04T09:14:12.404Z,106.88
2018-04-04T09:15:12.395Z,106.88
2018-04-04T09:16:12.400Z,101.25
2018-04-04T09:17:12.402Z,101.25
2018-04-04T09:18:12.402Z,106.88
2018-04-04T09:19:12.429Z,101.25
2018-04-04T09:20:12.419Z,106.88
2018-04-04T09:21:12.409Z,106.88
2018-04-04T09:22:12.419Z,112.50
2018-04-04T09:23:12.415Z,112.50
2018-04-04T09:24:12.419Z,118.13
2018-04-04T09:25:12.420Z,118.13
2018-04-04T09:26:12.423Z,112.50
2018-04-04T09:27:12.428Z,112.50
2018-04-04T09:28:12.430Z,106.88
2018-04-04T09:29:12.436Z,101.25
2018-04-04T09:30:12.452Z,101.25
2018-04-04T09:31:12.440Z,95.63
2018-04-04T09:32:12.439Z,95.63
2018-04-04T09:33:12.440Z,95.63
2018-04-04T09:34:12.444Z,95.63
2018-04-04T09:35:12.446Z,101.25
2018-04-04T09:36:12.453Z,101.25
2018-04-04T09:37:12.453Z,101.25
2018-04-04T09:38:12.454Z,106.88
2018-04-04T09:39:12.460Z,106.88
2018-04-04T09:40:12.460Z,112.50
2018-04-04T09:41:12.463Z,112.50
2018-04-04T09:42:12.467Z,112.50
2018-04-04T09:43:12.495Z,112.50
2018-04-04T09:44:12.471Z,118.13
2018-04-04T09:45:12.474Z,118.13
2018-04-04T09:46:12.477Z,112.50
2018-04-04T09:47:12.485Z,118.13
2018-04-04T09:48:12.484Z,118.13
2018-04-04T09:49:12.490Z,118.13
2018-04-04T09:50:12.494Z,118.13
2018-04-04T09:51:12.491Z,123.75
2018-04-04T09:52:12.495Z,129.38
2018-04-04T09:53:12.512Z,135.00
2018-04-04T09:54:12.512Z,140.63
2018-04-04T09:55:12.505Z,146.25
2018-04-04T09:56:12.508Z,146.25
2018-04-04T09:57:12.512Z,140.63
2018-04-04T09:58:12.513Z,140.63
2018-04-04T09:59:12.516Z,146.25
2018-04-04T10:00:12.555Z,151.88
2018-04-04T10:01:12.593Z,146.25
2018-04-04T10:02:12.529Z,146.25
2018-04-04T10:03:12.606Z,151.88
2018-04-04T10:04:12.537Z,151.88
2018-04-04T10:05:12.540Z,151.88
2018-04-04T10:06:12.543Z,151.88
2018-04-04T10:07:12.542Z,151.88
2018-04-04T10:08:12.545Z,151.88
2018-04-04T10:09:12.549Z,157.50
2018-04-04T10:10:12.556Z,163.13
2018-04-04T10:11:12.561Z,163.13
2018-04-04T10:12:12.561Z,174.38
2018-04-04T10:13:12.565Z,180.00
2018-04-04T10:14:12.577Z,174.38
2018-04-04T10:15:12.570Z,168.75
2018-04-04T10:16:12.615Z,163.13
2018-04-04T10:17:12.576Z,163.13
2018-04-04T10:18:12.591Z,163.13
2018-04-04T10:19:12.626Z,163.13
2018-04-04T10:20:12.589Z,157.50
2018-04-04T10:21:12.594Z,157.50
2018-04-04T10:22:12.609Z,157.50
2018-04-04T10:23:12.616Z,157.50
2018-04-04T10:24:12.608Z,163.13
2018-04-04T10:25:12.608Z,163.13
2018-04-04T10:26:12.662Z,168.75
2018-04-04T10:27:12.617Z,168.75
2018-04-04T10:28:12.623Z,168.75
2018-04-04T10:29:12.634Z,174.38
2018-04-04T10:30:12.633Z,174.38
2018-04-04T10:31:12.637Z,168.75
2018-04-04T10:32:12.647Z,168.75
2018-04-04T10:33:12.641Z,163.13
2018-04-04T10:34:12.645Z,168.75
2018-04-04T10:35:12.693Z,168.75
2018-04-04T10:36:12.653Z,151.88
2018-04-04T10:37:12.660Z,146.25
2018-04-04T10:38:12.669Z,151.88
2018-04-04T10:39:12.666Z,163.13
2018-04-04T10:40:12.677Z,163.13
2018-04-04T10:41:12.674Z,168.75
2018-04-04T10:42:12.678Z,157.50
2018-04-04T10:43:12.687Z,157.50
2018-04-04T10:44:12.687Z,157.50
2018-04-04T10:45:12.719Z,168.75
2018-04-04T10:46:12.701Z,168.75
2018-04-04T10:47:12.701Z,185.63
2018-04-04T10:48:12.703Z,185.63
2018-04-04T10:49:12.710Z,180.00
2018-04-04T10:50:12.769Z,180.00
2018-04-04T10:51:12.717Z,168.75
2018-04-04T10:52:12.722Z,157.50
2018-04-04T10:53:12.758Z,140.63
2018-04-04T10:54:12.730Z,129.38
2018-04-04T10:55:12.735Z,123.75
2018-04-04T10:56:12.744Z,118.13
2018-04-04T10:57:12.745Z,106.88
2018-04-04T10:58:12.754Z,101.25
2018-04-04T10:59:12.756Z,95.63
2018-04-04T11:00:12.760Z,95.63
2018-04-04T11:01:12.762Z,90.00
2018-04-04T11:02:12.767Z,84.38
2018-04-04T11:03:12.770Z,78.75
2018-04-04T11:04:12.778Z,78.75
2018-04-04T11:05:12.780Z,78.75
2018-04-04T11:06:12.786Z,73.13
2018-04-04T11:07:12.788Z,61.88
2018-04-04T11:08:12.795Z,56.25
2018-04-04T11:09:12.795Z,50.63
2018-04-04T11:10:12.800Z,45.00
2018-04-04T11:11:12.814Z,45.00
2018-04-04T11:12:12.840Z,45.00
2018-04-04T11:13:12.819Z,45.00
2018-04-04T11:14:12.818Z,45.00
2018-04-04T11:15:12.822Z,45.00
2018-04-04T11:16:12.827Z,39.38
2018-04-04T11:17:12.829Z,33.75
2018-04-04T11:18:12.835Z,33.75
2018-04-04T11:19:12.837Z,28.13
2018-04-04T11:20:12.846Z,28.13
2018-04-04T11:21:12.848Z,33.75
2018-04-04T11:22:12.851Z,39.38
2018-04-04T11:23:13.111Z,45.00
2018-04-04T11:24:12.867Z,45.00
2018-04-04T11:25:12.862Z,56.25
2018-04-04T11:26:12.866Z,61.88
2018-04-04T11:27:12.871Z,73.13
2018-04-04T11:28:14.503Z,84.38
2018-04-04T11:29:12.908Z,101.25
2018-04-04T11:30:12.881Z,112.50
2018-04-04T11:31:12.897Z,112.50
2018-04-04T11:32:12.923Z,118.13
2018-04-04T11:33:12.894Z,140.63
2018-04-04T11:34:12.896Z,157.50
2018-04-04T11:35:12.907Z,180.00
2018-04-04T11:36:12.948Z,202.50
2018-04-04T11:37:12.926Z,208.13
2018-04-04T11:38:12.924Z,213.75
2018-04-04T11:39:12.918Z,213.75
2018-04-04T11:40:12.922Z,225.00
2018-04-04T11:41:12.929Z,241.88
2018-04-04T11:42:12.930Z,230.63
2018-04-04T11:43:12.942Z,236.25
2018-04-04T11:44:12.940Z,236.25
2018-04-04T11:45:12.941Z,219.38
2018-04-04T11:46:12.946Z,191.25
2018-04-04T11:47:12.953Z,180.00
2018-04-04T11:48:12.971Z,157.50
2018-04-04T11:49:12.959Z,163.13
2018-04-04T11:50:12.971Z,163.13
2018-04-04T11:51:12.981Z,168.75
2018-04-04T11:52:12.974Z,157.50
2018-04-04T11:53:12.985Z,135.00
2018-04-04T11:54:12.984Z,118.13
2018-04-04T11:55:12.989Z,140.63
2018-04-04T11:56:13.257Z,146.25
2018-04-04T11:57:13.004Z,135.00
2018-04-04T11:58:13.002Z,123.75
2018-04-04T11:59:13.006Z,118.13
2018-04-04T12:00:13.013Z,106.88
2018-04-04T12:01:13.017Z,101.25
2018-04-04T12:02:13.023Z,95.63
2018-04-04T12:03:13.032Z,95.63
2018-04-04T12:04:13.043Z,101.25
2018-04-04T12:05:13.051Z,112.50
2018-04-04T12:06:13.050Z,146.25
2018-04-04T12:07:13.045Z,163.13
2018-04-04T12:08:13.050Z,163.13
2018-04-04T12:09:13.054Z,163.13
2018-04-04T12:10:13.061Z,168.75
2018-04-04T12:11:13.076Z,168.75
2018-04-04T12:12:13.069Z,180.00
2018-04-04T12:13:13.073Z,174.38
2018-04-04T12:14:13.078Z,180.00
2018-04-04T12:15:13.081Z,185.63
2018-04-04T12:16:13.113Z,191.25
2018-04-04T12:17:13.091Z,174.38
2018-04-04T12:18:13.096Z,163.13
2018-04-04T12:19:13.108Z,140.63
2018-04-04T12:20:13.107Z,112.50
2018-04-04T12:21:13.110Z,95.63
2018-04-04T12:22:13.114Z,90.00
2018-04-04T12:23:13.180Z,84.38
2018-04-04T12:24:13.123Z,84.38
2018-04-04T12:25:13.133Z,78.75
2018-04-04T12:26:13.138Z,78.75
2018-04-04T12:27:13.138Z,78.75
2018-04-04T12:28:13.154Z,78.75
2018-04-04T12:29:13.170Z,78.75
2018-04-04T12:30:13.152Z,78.75
2018-04-04T12:31:13.155Z,78.75
2018-04-04T12:32:13.162Z,78.75
2018-04-04T12:33:13.165Z,78.75
2018-04-04T12:34:13.170Z,78.75
2018-04-04T12:35:13.178Z,78.75
2018-04-04T12:36:13.190Z,78.75
2018-04-04T12:37:13.201Z,78.75
2018-04-04T12:38:13.213Z,84.38
2018-04-04T12:39:13.193Z,84.38
2018-04-04T12:40:13.199Z,78.75
2018-04-04T12:41:13.238Z,78.75
2018-04-04T12:42:13.212Z,78.75
2018-04-04T12:43:13.210Z,78.75
2018-04-04T12:44:13.217Z,78.75
2018-04-04T12:45:13.219Z,78.75
2018-04-04T12:46:13.222Z,78.75
2018-04-04T12:47:13.228Z,78.75
2018-04-04T12:48:13.233Z,78.75
2018-04-04T12:49:13.236Z,78.75
2018-04-04T12:50:13.240Z,78.75
2018-04-04T12:51:13.244Z,84.38
2018-04-04T12:52:13.249Z,90.00
2018-04-04T12:53:13.298Z,84.38